Terminal Aerodrome Forecast
Issued by NWS

Home | Current Version | Previous Version | Text Only | Print | Product List | Glossary On
Versions: 1 2 3 4 5 6 7 8 9 10 11 12 13 14 15 16 17 18 19 20 21 22 23 24
000
FTUS43 KGRR 042341
TAFMKG
TAF
KMKG 042341Z 0500/0524 VRB03KT P6SM SCT025 BKN250
      TEMPO 0500/0503 BKN025
     FM050400 00000KT 4SM BR BKN035
     FM050900 00000KT 2SM BR VCTS BKN025CB
     FM051500 21008KT P6SM BKN035=

USA.gov is the U.S. government's official web portal to all federal, state and local government web resources and services.